Time;durP1;ratioP1;P1;durP2;ratioP2;P2;SDS_P1;SDS_P2;PMS_P1;PMS_P2;Temp;Humidity;BMP_temperature;BMP_pressure;BME280_temperature;BME280_humidity;BME280_pressure;Samples;Min_cycle;Max_cycle;Signal;HPM_P1;HPM_P2
2022/04/20 00:00:58;;;;;;;4.30;0.85;;;;;;;7.82;59.96;100594.66;5013111;28;20285;-68
2022/04/20 00:04:01;;;;;;;2.50;1.10;;;;;;;7.76;60.32;100592.31;5011035;28;20062;-68
2022/04/20 00:07:05;;;;;;;2.40;1.00;;;;;;;7.57;60.43;100593.00;5012961;28;20171;-68
2022/04/20 00:10:08;;;;;;;;;;;;;;;7.44;60.98;100597.00;5013208;28;20133;-68
2022/04/20 00:13:11;;;;;;;6.35;0.98;;;;;;;7.48;60.75;100598.56;5012873;28;20398;-68
2022/04/20 00:16:15;;;;;;;;;;;;;;;7.60;59.95;100592.06;5012724;28;20048;-68
2022/04/20 00:19:19;;;;;;;4.63;1.55;;;;;;;7.40;61.03;100595.41;5008885;28;19928;-68
2022/04/20 00:22:22;;;;;;;;;;;;;;;7.30;61.45;100594.91;5001279;28;20045;-68
2022/04/20 00:25:25;;;;;;;5.07;1.52;;;;;;;7.20;61.43;100590.97;5012687;28;19924;-68
2022/04/20 00:28:29;;;;;;;6.22;1.30;;;;;;;7.22;60.82;100595.19;5012411;28;20128;-68
2022/04/20 00:31:32;;;;;;;2.75;1.10;;;;;;;7.21;61.02;100585.72;5012375;28;20517;-68
2022/04/20 00:34:35;;;;;;;;;;;;;;;6.98;61.45;100590.88;5012678;28;20052;-68
2022/04/20 00:37:41;;;;;;;5.30;1.20;;;;;;;6.95;61.20;100599.66;5012757;28;19920;-68
2022/04/20 00:40:47;;;;;;;3.83;1.05;;;;;;;6.87;61.05;100590.44;5011542;28;20045;-68
2022/04/20 00:43:51;;;;;;;2.28;1.13;;;;;;;6.86;61.11;100588.72;5012260;28;20049;-68
2022/04/20 00:46:55;;;;;;;;;;;;;;;6.73;61.37;100602.19;5012610;28;20409;-68
2022/04/20 00:49:59;;;;;;;2.97;1.30;;;;;;;6.64;61.52;100599.91;5012214;28;19920;-68
2022/04/20 00:53:02;;;;;;;3.38;1.23;;;;;;;6.63;61.42;100592.16;4999952;28;20129;-68
2022/04/20 00:56:06;;;;;;;3.88;1.33;;;;;;;6.60;61.11;100595.69;4999903;28;20044;-68
2022/04/20 00:59:13;;;;;;;2.83;1.00;;;;;;;6.52;61.89;100597.72;4999742;28;20473;-68
2022/04/20 01:02:17;;;;;;;2.60;1.17;;;;;;;6.43;62.69;100598.88;5009519;28;20061;-68
2022/04/20 01:05:27;;;;;;;3.30;1.30;;;;;;;6.45;63.04;100596.25;5011149;28;20044;-68
2022/04/20 01:08:49;;;;;;;4.03;1.10;;;;;;;6.61;62.35;100588.78;5012113;28;20044;-68
2022/04/20 01:12:15;;;;;;;5.35;1.63;;;;;;;6.67;61.91;100597.19;4992223;28;20069;-68
2022/04/20 01:15:52;;;;;;;2.70;1.38;;;;;;;6.38;61.86;100593.00;4991362;28;20480;-68
2022/04/20 01:19:05;;;;;;;2.97;1.10;;;;;;;6.23;62.68;100583.97;4980024;28;20528;-68
2022/04/20 01:22:28;;;;;;;5.00;1.60;;;;;;;6.19;62.45;100595.38;4980264;28;20058;-68
2022/04/20 01:25:58;;;;;;;5.45;1.13;;;;;;;6.39;62.07;100593.84;4980035;28;20556;-68
2022/04/20 01:29:30;;;;;;;5.45;1.65;;;;;;;6.27;62.53;100595.94;4995418;28;20057;-68
2022/04/20 01:32:40;;;;;;;3.10;1.30;;;;;;;6.03;62.83;100596.75;4983527;28;20068;-68
2022/04/20 01:35:57;;;;;;;3.10;1.20;;;;;;;5.97;62.89;100602.16;4984027;28;20502;-68
2022/04/20 01:39:00;;;;;;;2.22;1.27;;;;;;;5.89;63.41;100588.53;4983988;28;20128;-68
2022/04/20 01:42:07;;;;;;;3.17;1.13;;;;;;;5.83;64.38;100589.56;4983970;28;20574;-68
2022/04/20 01:45:11;;;;;;;4.03;1.30;;;;;;;5.88;64.44;100592.03;4984070;28;20116;-68
2022/04/20 01:48:31;;;;;;;5.57;1.30;;;;;;;5.85;64.48;100592.13;4983825;28;20409;-68
2022/04/20 01:52:03;;;;;;;5.35;1.40;;;;;;;5.80;64.49;100585.31;4984005;28;20053;-68
2022/04/20 01:55:12;;;;;;;4.13;1.35;;;;;;;5.76;64.49;100591.50;4996039;28;20057;-68
2022/04/20 01:58:36;;;;;;;4.25;1.17;;;;;;;5.95;63.84;100585.78;4983504;28;20165;-68
2022/04/20 02:05:27;;;;;;;5.93;1.23;;;;;;;5.79;64.15;100594.00;4975758;28;20092;-68
2022/04/20 02:08:47;;;;;;;5.93;1.33;;;;;;;5.53;64.80;100606.94;4964757;28;20050;-68
2022/04/20 02:12:09;;;;;;;3.33;1.25;;;;;;;5.45;65.09;100603.72;4996344;28;20049;-68
2022/04/20 02:15:33;;;;;;;8.23;1.38;;;;;;;5.45;64.97;100608.91;4996794;28;20041;-68
2022/04/20 02:18:39;;;;;;;3.28;1.42;;;;;;;5.26;65.34;100609.44;4996391;28;20521;-68
2022/04/20 02:22:01;;;;;;;2.83;1.40;;;;;;;5.16;65.48;100608.00;4996423;28;20046;-68
2022/04/20 02:25:04;;;;;;;;;;;;;;;5.23;65.70;100611.28;4984522;28;20069;-68
2022/04/20 02:28:09;;;;;;;5.80;1.50;;;;;;;5.19;65.99;100613.09;5006660;28;19920;-68
2022/04/20 02:31:14;;;;;;;3.13;1.23;;;;;;;5.14;66.25;100609.81;4990627;28;20396;-68
2022/04/20 02:34:17;;;;;;;7.28;1.42;;;;;;;5.16;66.15;100614.94;5003752;28;20092;-68
2022/04/20 02:37:22;;;;;;;;;;;;;;;5.08;65.83;100620.34;5003978;28;20123;-68
2022/04/20 02:40:25;;;;;;;2.60;1.20;;;;;;;5.08;65.89;100628.13;5015422;28;19924;-68
2022/04/20 02:43:28;;;;;;;3.20;1.52;;;;;;;4.96;66.24;100626.72;5003253;28;20103;-68
2022/04/20 02:46:32;;;;;;;3.25;1.70;;;;;;;4.86;66.70;100631.31;5003571;28;20180;-68
2022/04/20 02:49:36;;;;;;;5.18;1.60;;;;;;;4.76;66.94;100629.84;5015740;28;20036;-68
2022/04/20 02:52:39;;;;;;;2.10;1.00;;;;;;;4.70;66.63;100632.59;5015713;28;20049;-68
2022/04/20 02:55:43;;;;;;;4.82;1.52;;;;;;;4.93;66.66;100628.53;5003085;28;20104;-68
2022/04/20 02:58:48;;;;;;;4.88;1.27;;;;;;;5.18;65.74;100626.13;5003124;28;20056;-68
2022/04/20 03:01:51;;;;;;;3.83;1.55;;;;;;;4.83;66.51;100626.19;4993766;28;20041;-68
2022/04/20 03:04:56;;;;;;;4.53;1.42;;;;;;;4.74;66.79;100630.78;4983363;28;20048;-68
2022/04/20 03:08:00;;;;;;;3.70;1.30;;;;;;;4.69;67.05;100638.69;4983696;28;20165;-68
2022/04/20 03:11:03;;;;;;;3.65;1.40;;;;;;;4.58;67.58;100638.09;4985469;28;20406;-68
2022/04/20 03:14:07;;;;;;;2.92;1.67;;;;;;;4.96;66.48;100634.50;4974205;28;20089;-68
2022/04/20 03:17:12;;;;;;;4.40;1.50;;;;;;;5.16;65.76;100639.13;4974249;28;20411;-68
2022/04/20 03:20:16;;;;;;;5.72;1.10;;;;;;;5.25;64.96;100638.84;4974217;28;20559;-68
2022/04/20 03:23:19;;;;;;;3.08;1.20;;;;;;;4.84;66.45;100648.63;4974264;28;20165;-68
2022/04/20 03:26:26;;;;;;;3.15;1.45;;;;;;;4.55;67.13;100646.78;4992830;28;20449;-68
2022/04/20 03:29:36;;;;;;;6.15;1.52;;;;;;;4.34;67.89;100643.03;4993374;28;20100;-68
2022/04/20 03:32:41;;;;;;;2.90;1.20;;;;;;;4.28;68.20;100653.53;4994298;28;20058;-68
2022/04/20 03:35:44;;;;;;;4.43;1.95;;;;;;;4.23;68.36;100655.34;4993907;28;20088;-68
2022/04/20 03:38:48;;;;;;;4.60;1.65;;;;;;;4.57;67.37;100659.72;4994203;28;20052;-68
2022/04/20 03:41:51;;;;;;;3.70;1.23;;;;;;;4.25;67.88;100657.91;4993839;28;20041;-67
2022/04/20 03:44:54;;;;;;;4.95;1.75;;;;;;;4.26;68.07;100654.44;4993056;28;20049;-68
2022/04/20 03:47:58;;;;;;;7.65;1.35;;;;;;;4.27;68.06;100659.56;4993192;28;20049;-68
2022/04/20 03:51:02;;;;;;;2.90;1.27;;;;;;;4.20;68.50;100660.59;4976984;28;20045;-68
2022/04/20 03:54:06;;;;;;;7.28;1.83;;;;;;;4.10;68.41;100664.31;4976341;28;20040;-68
2022/04/20 03:57:14;;;;;;;3.97;1.70;;;;;;;4.07;68.82;100674.72;4990428;28;20398;-68
2022/04/20 04:00:24;;;;;;;2.83;1.45;;;;;;;4.17;68.39;100663.25;4988262;28;20041;-68
2022/04/20 04:03:31;;;;;;;4.90;1.55;;;;;;;3.97;68.87;100661.16;4989054;28;20048;-68
2022/04/20 04:06:42;;;;;;;3.53;1.33;;;;;;;3.90;68.70;100663.03;4989248;28;20060;-68
2022/04/20 04:09:51;;;;;;;3.70;2.00;;;;;;;4.03;68.54;100666.19;4994712;28;20324;-68
2022/04/20 04:12:55;;;;;;;4.63;1.65;;;;;;;3.91;68.86;100664.72;4997311;28;20083;-68
2022/04/20 04:15:59;;;;;;;4.47;1.40;;;;;;;4.23;67.64;100664.88;4981203;28;20159;-68
2022/04/20 04:19:05;;;;;;;4.03;1.70;;;;;;;4.01;68.31;100669.69;4976892;28;20900;-68
2022/04/20 04:22:09;;;;;;;6.05;1.52;;;;;;;3.89;68.81;100671.69;4988717;28;20045;-68
2022/04/20 04:25:17;;;;;;;5.68;1.70;;;;;;;3.77;69.57;100671.94;4975936;28;20065;-68
2022/04/20 04:28:21;;;;;;;3.90;2.20;;;;;;;3.65;69.62;100664.44;4986475;28;20104;-68
2022/04/20 04:31:26;;;;;;;7.60;2.08;;;;;;;3.55;70.07;100675.88;4968731;28;20101;-68
2022/04/20 04:34:32;;;;;;;3.42;1.98;;;;;;;3.57;70.14;100680.09;4980103;28;20197;-67
2022/04/20 04:37:40;;;;;;;4.57;1.55;;;;;;;3.72;69.82;100684.13;4972557;28;20061;-68
2022/04/20 04:40:46;;;;;;;6.93;1.45;;;;;;;3.71;69.31;100685.00;4973267;28;20131;-68
2022/04/20 04:43:49;;;;;;;6.25;1.52;;;;;;;3.79;69.42;100675.34;4973031;28;20046;-68
2022/04/20 04:50:24;;;;;;;3.03;1.60;;;;;;;3.77;69.26;100692.63;4989261;28;20136;-68
2022/04/20 04:53:27;;;;;;;4.22;1.52;;;;;;;3.99;68.36;100686.97;4981035;28;20049;-68
2022/04/20 04:56:31;;;;;;;6.30;1.67;;;;;;;3.73;69.28;100688.41;4980328;28;20483;-68
2022/04/20 04:59:39;;;;;;;3.75;1.80;;;;;;;3.65;69.37;100688.56;4992007;28;20050;-68
2022/04/20 05:02:43;;;;;;;3.35;1.70;;;;;;;3.72;69.70;100694.47;4997962;28;21061;-68
2022/04/20 05:05:47;;;;;;;3.10;1.48;;;;;;;3.96;68.93;100695.69;5005723;28;20524;-68
2022/04/20 05:08:54;;;;;;;3.45;1.63;;;;;;;3.98;68.79;100693.88;4996669;28;20076;-68
2022/04/20 05:11:58;;;;;;;5.97;1.80;;;;;;;4.02;68.07;100703.31;5009489;28;20053;-67
2022/04/20 05:15:02;;;;;;;3.85;1.58;;;;;;;3.85;68.70;100705.41;4987104;28;20073;-67
2022/04/20 05:18:06;;;;;;;3.33;1.48;;;;;;;4.03;68.40;100698.97;4983880;28;20048;-68
2022/04/20 05:21:09;;;;;;;4.70;1.80;;;;;;;4.21;67.88;100701.13;4979175;28;20049;-68
2022/04/20 05:24:14;;;;;;;4.47;2.03;;;;;;;4.05;68.43;100699.78;4986168;28;20089;-68
2022/04/20 05:27:17;;;;;;;3.85;1.63;;;;;;;4.23;68.39;100704.53;4999151;28;20048;-68
2022/04/20 05:30:46;;;;;;;4.32;1.88;;;;;;;4.37;68.07;100699.03;4998481;28;20045;-68
2022/04/20 05:33:49;;;;;;;2.90;1.60;;;;;;;4.41;68.01;100695.50;4986857;28;20048;-67
2022/04/20 05:43:36;;;;;;;4.15;1.58;;;;;;;4.60;66.87;100698.47;5009407;28;20100;-68
2022/04/20 05:46:41;;;;;;;5.40;1.50;;;;;;;4.50;67.29;100694.41;4986306;28;20185;-68
2022/04/20 05:49:51;;;;;;;7.03;1.70;;;;;;;4.63;66.68;100696.66;4985059;28;20436;-68
2022/04/20 05:52:56;;;;;;;5.10;1.85;;;;;;;4.81;66.41;100697.91;5008509;28;20045;-68
2022/04/20 05:56:00;;;;;;;4.05;1.60;;;;;;;4.89;66.03;100693.41;4998012;28;20225;-68
2022/04/20 05:59:04;;;;;;;3.35;1.73;;;;;;;5.04;65.35;100701.66;4986699;28;20134;-68
2022/04/20 06:02:09;;;;;;;4.70;1.80;;;;;;;4.90;66.17;100691.66;4997469;28;20056;-68
2022/04/20 06:05:13;;;;;;;4.00;1.80;;;;;;;4.78;66.83;100690.22;4986312;28;20048;-67
2022/04/20 06:08:30;;;;;;;4.57;1.70;;;;;;;4.80;65.82;100695.38;4996693;28;20057;-68
2022/04/20 06:11:41;;;;;;;4.22;1.77;;;;;;;5.06;64.86;100684.31;5020542;28;20097;-68
2022/04/20 06:14:46;;;;;;;3.40;1.80;;;;;;;5.21;64.32;100686.50;4993143;28;20108;-68
2022/04/20 06:17:52;;;;;;;7.00;1.73;;;;;;;5.19;64.89;100685.69;4994965;28;20057;-67
2022/04/20 06:20:56;;;;;;;10.10;2.10;;;;;;;5.32;63.05;100675.81;4994008;28;20461;-68
2022/04/20 06:24:14;;;;;;;5.28;2.00;;;;;;;5.53;63.02;100682.16;4993424;28;20402;-68
2022/04/20 06:27:33;;;;;;;2.85;1.50;;;;;;;5.76;62.66;100682.31;5005938;28;20046;-68
2022/04/20 06:30:59;;;;;;;4.88;1.88;;;;;;;5.65;63.30;100673.16;4993911;28;20117;-68
2022/04/20 06:34:28;;;;;;;5.82;1.95;;;;;;;5.60;63.01;100681.91;4994945;28;20049;-68
2022/04/20 06:37:50;;;;;;;4.43;2.03;;;;;;;5.59;63.51;100672.44;4994326;28;20049;-68
2022/04/20 06:41:12;;;;;;;6.70;2.70;;;;;;;5.86;64.05;100674.25;4995130;28;20176;-68
2022/04/20 06:44:32;;;;;;;3.75;1.70;;;;;;;6.23;63.51;100668.81;4993752;28;20564;-68
2022/04/20 06:47:59;;;;;;;4.63;1.90;;;;;;;6.39;61.96;100671.78;4994387;28;20177;-68
2022/04/20 06:51:22;;;;;;;4.43;1.73;;;;;;;6.62;61.49;100669.25;5005503;28;20569;-68
2022/04/20 07:01:21;;;;;;;4.55;2.08;;;;;;;6.99;60.16;100660.19;4993748;28;20700;-68
2022/04/20 07:04:51;;;;;;;3.40;2.00;;;;;;;7.11;59.93;100656.28;4998951;28;20465;-68
2022/04/20 07:08:22;;;;;;;4.97;2.10;;;;;;;7.36;58.73;100662.31;4993538;28;20525;-68
2022/04/20 07:11:28;;;;;;;7.28;2.38;;;;;;;7.43;58.37;100661.19;5001947;28;20504;-68
2022/04/20 07:14:33;;;;;;;4.72;1.98;;;;;;;7.61;57.12;100653.59;5024007;28;20049;-68
2022/04/20 07:17:37;;;;;;;6.63;2.47;;;;;;;7.82;56.85;100662.34;5001098;28;20052;-68
2022/04/20 07:21:03;;;;;;;7.13;2.47;;;;;;;8.04;55.57;100655.41;5006299;28;20056;-68
2022/04/20 07:24:39;;;;;;;9.73;2.75;;;;;;;8.11;55.04;100656.84;5008140;28;20052;-68
2022/04/20 07:27:47;;;;;;;5.72;2.22;;;;;;;8.23;53.44;100658.13;5032674;28;20125;-68
2022/04/20 07:31:08;;;;;;;19.45;3.28;;;;;;;8.24;54.22;100656.34;5034657;28;20048;-68
2022/04/20 07:34:50;;;;;;;9.10;2.13;;;;;;;8.37;53.71;100657.53;5010570;28;20324;-68
2022/04/20 07:38:06;;;;;;;5.50;2.30;;;;;;;8.47;53.52;100652.81;5011476;28;20045;-68
2022/04/20 07:41:29;;;;;;;7.32;2.35;;;;;;;8.65;53.04;100659.88;5017922;28;20048;-68
2022/04/20 07:44:47;;;;;;;5.72;2.03;;;;;;;8.81;51.61;100658.31;5020291;28;20133;-68
2022/04/20 07:48:16;;;;;;;5.00;1.88;;;;;;;8.88;50.06;100656.28;5018620;28;20060;-68
2022/04/20 07:51:40;;;;;;;3.90;2.38;;;;;;;9.04;49.55;100659.09;5002449;28;20099;-68
2022/04/20 07:55:12;;;;;;;3.88;2.10;;;;;;;9.16;50.23;100660.31;5012440;28;20456;-68
2022/04/20 07:58:23;;;;;;;4.35;2.10;;;;;;;9.28;49.73;100658.00;4999877;28;20536;-68
2022/04/20 08:01:53;;;;;;;4.22;1.50;;;;;;;9.43;49.95;100655.59;5012927;28;20057;-68
2022/04/20 08:05:23;;;;;;;4.43;1.90;;;;;;;9.58;49.01;100654.06;5023789;28;20125;-68
2022/04/20 08:08:27;;;;;;;6.05;2.33;;;;;;;9.76;47.37;100646.22;5022875;28;20049;-68
2022/04/20 08:11:34;;;;;;;4.50;1.80;;;;;;;9.93;46.79;100648.03;5003778;28;20084;-68
2022/04/20 08:14:40;;;;;;;7.13;2.10;;;;;;;9.98;44.55;100645.19;4990997;28;20061;-68
2022/04/20 08:18:02;;;;;;;4.43;1.95;;;;;;;10.14;45.55;100637.47;4981000;28;20173;-68
2022/04/20 08:21:43;;;;;;;6.75;1.67;;;;;;;10.18;43.47;100641.66;4991752;28;20096;-68
2022/04/20 08:24:47;;;;;;;6.13;1.83;;;;;;;10.22;42.36;100636.19;4990706;28;20133;-68
2022/04/20 08:27:51;;;;;;;5.32;1.50;;;;;;;10.31;42.35;100637.53;4991974;28;20064;-68
2022/04/20 08:30:54;;;;;;;4.95;1.80;;;;;;;10.44;41.83;100641.22;4991984;28;20401;-68
2022/04/20 08:33:58;;;;;;;4.35;1.52;;;;;;;10.60;41.20;100637.84;4992645;28;20096;-68
2022/04/20 08:37:01;;;;;;;3.13;1.60;;;;;;;10.46;40.55;100623.72;4991325;28;20169;-68
2022/04/20 08:40:06;;;;;;;7.90;1.77;;;;;;;10.60;41.14;100630.00;4992557;28;20057;-68
2022/04/20 08:43:11;;;;;;;5.43;1.77;;;;;;;10.78;40.18;100633.44;4992427;28;20422;-68
2022/04/20 08:46:17;;;;;;;5.82;1.30;;;;;;;10.82;40.19;100620.13;4992434;28;20053;-68
2022/04/20 08:49:22;;;;;;;5.57;1.45;;;;;;;11.17;39.04;100623.53;4973058;28;20053;-68
2022/04/20 08:52:37;;;;;;;8.45;1.92;;;;;;;11.24;35.71;100631.06;4971615;28;20082;-68
2022/04/20 08:55:42;;;;;;;6.05;1.35;;;;;;;11.32;36.67;100624.44;4971473;28;20406;-68
2022/04/20 08:58:50;;;;;;;3.67;1.67;;;;;;;11.39;35.98;100604.03;4971595;28;20049;-68
2022/04/20 09:01:54;;;;;;;3.15;1.42;;;;;;;11.52;36.01;100612.91;4991760;28;20057;-68
2022/04/20 09:04:57;;;;;;;;;;;;;;;11.60;35.78;100610.72;4992042;28;20512;-68
2022/04/20 09:08:12;;;;;;;3.20;1.40;;;;;;;11.63;34.90;100612.31;4992112;28;19920;-68
2022/04/20 09:11:15;;;;;;;5.75;1.75;;;;;;;11.72;34.75;100621.44;5008559;28;20409;-68
2022/04/20 09:14:21;;;;;;;;;;;;;;;11.71;34.80;100619.75;5011756;28;20103;-68
2022/04/20 09:17:31;;;;;;;4.88;1.30;;;;;;;11.78;34.92;100613.25;5011522;28;19971;-68
2022/04/20 09:20:35;;;;;;;16.20;2.42;;;;;;;11.83;34.91;100598.94;5011013;28;20147;-68
2022/04/20 09:23:39;;;;;;;4.72;1.50;;;;;;;11.93;35.26;100595.84;5023548;28;20044;-68
2022/04/20 09:26:56;;;;;;;2.95;1.42;;;;;;;11.98;34.87;100601.69;5012907;28;20073;-68
2022/04/20 09:30:00;;;;;;;3.30;1.27;;;;;;;11.94;35.22;100600.16;5011963;28;20181;-68
2022/04/20 09:33:07;;;;;;;4.20;1.52;;;;;;;12.13;35.86;100594.72;5011967;28;20343;-68
2022/04/20 09:36:14;;;;;;;4.07;1.30;;;;;;;12.09;33.87;100591.41;5011329;28;20044;-68
2022/04/20 09:39:18;;;;;;;6.45;1.48;;;;;;;12.21;33.84;100593.31;5011973;28;20049;-68
2022/04/20 09:42:21;;;;;;;5.50;1.50;;;;;;;12.06;33.33;100581.09;5011343;28;20064;-68
2022/04/20 09:45:29;;;;;;;2.60;1.50;;;;;;;12.13;34.45;100585.09;5009671;28;20456;-68
2022/04/20 09:48:52;;;;;;;3.72;1.88;;;;;;;12.32;34.49;100577.84;5010286;28;20119;-68
2022/04/20 09:52:07;;;;;;;3.55;1.50;;;;;;;12.53;34.52;100572.25;5015276;28;20604;-68
2022/04/20 09:55:33;;;;;;;4.22;1.40;;;;;;;12.59;33.88;100582.38;5015481;28;20134;-68
2022/04/20 09:58:38;;;;;;;3.67;1.20;;;;;;;12.47;32.98;100577.84;5015077;28;20041;-68
2022/04/20 10:01:47;;;;;;;8.57;1.63;;;;;;;12.63;33.27;100570.75;5015332;28;20464;-68
2022/04/20 10:04:51;;;;;;;4.00;1.60;;;;;;;12.67;33.48;100568.81;5014833;28;20631;-68
2022/04/20 10:07:59;;;;;;;11.00;1.75;;;;;;;12.66;33.38;100556.59;5013972;28;20107;-68
2022/04/20 10:11:04;;;;;;;4.05;1.30;;;;;;;12.75;34.75;100554.28;4994858;28;20137;-68
2022/04/20 10:17:35;;;;;;;3.85;1.55;;;;;;;12.94;33.37;100553.16;4994992;28;20056;-68
2022/04/20 10:20:46;;;;;;;6.22;1.92;;;;;;;12.98;34.38;100547.59;4994969;28;20075;-68
2022/04/20 10:23:53;;;;;;;4.47;1.40;;;;;;;13.06;33.68;100551.56;5000432;28;20100;-68
2022/04/20 10:27:09;;;;;;;3.50;1.40;;;;;;;13.12;33.69;100533.66;5014477;28;20045;-68
2022/04/20 10:30:21;;;;;;;2.90;1.33;;;;;;;13.14;33.42;100531.75;5015089;28;20396;-68
2022/04/20 10:33:26;;;;;;;3.58;1.42;;;;;;;13.09;33.95;100536.47;5015085;28;20053;-68
2022/04/20 10:36:37;;;;;;;5.43;1.60;;;;;;;13.22;33.80;100540.00;5013769;28;20104;-68
2022/04/20 10:39:52;;;;;;;3.45;1.55;;;;;;;13.34;34.40;100541.03;5012904;28;20343;-68
2022/04/20 10:43:19;;;;;;;3.17;1.60;;;;;;;13.36;33.00;100519.91;5013133;28;20129;-68
2022/04/20 10:46:23;;;;;;;5.43;1.23;;;;;;;13.36;32.95;100517.28;5004931;28;20197;-68
2022/04/20 10:49:34;;;;;;;4.65;1.25;;;;;;;13.56;33.38;100518.63;4993436;28;20049;-68
2022/04/20 10:52:46;;;;;;;4.88;1.63;;;;;;;13.46;31.96;100500.88;4994949;28;20041;-68
2022/04/20 10:55:53;;;;;;;11.07;3.25;;;;;;;13.55;32.92;100502.03;4993329;28;20049;-68
2022/04/20 10:59:08;;;;;;;4.45;1.20;;;;;;;13.70;32.17;100495.78;4994058;28;20100;-68
2022/04/20 11:02:12;;;;;;;2.83;1.33;;;;;;;13.79;31.91;100489.09;4995154;28;20049;-68
2022/04/20 11:05:19;;;;;;;;;;;;;;;13.80;31.78;100482.03;4994617;28;20155;-68
2022/04/20 11:08:24;;;;;;;4.80;1.40;;;;;;;13.89;32.70;100478.81;4994084;28;20408;-68
2022/04/20 11:19:11;;;;;;;6.38;1.58;;;;;;;13.59;32.25;100460.63;5013307;28;20132;-68
2022/04/20 11:23:05;;;;;;;4.57;1.63;;;;;;;13.85;32.26;100472.91;5013227;28;20056;-68
2022/04/20 11:26:12;;;;;;;4.45;2.00;;;;;;;14.30;36.11;100475.16;4999196;28;20436;-70
2022/04/20 11:29:17;;;;;;;6.63;1.55;;;;;;;14.41;34.89;100467.34;5012749;28;20505;-70
2022/04/20 11:32:21;;;;;;;6.35;1.60;;;;;;;14.55;35.95;100454.13;5013733;28;20130;-70
2022/04/20 11:35:30;;;;;;;3.63;1.55;;;;;;;14.74;34.29;100452.81;5012472;28;20045;-70
2022/04/20 11:38:41;;;;;;;8.68;1.40;;;;;;;14.75;35.80;100449.25;5013458;28;20418;-70
2022/04/20 11:41:46;;;;;;;2.92;1.38;;;;;;;14.93;34.02;100447.91;5013280;28;20052;-70
2022/04/20 11:44:50;;;;;;;4.47;1.70;;;;;;;15.08;33.60;100436.28;5012678;28;20125;-69
2022/04/20 11:48:06;;;;;;;4.07;2.13;;;;;;;15.19;34.54;100447.84;4992011;28;20049;-69
2022/04/20 11:51:29;;;;;;;4.85;1.33;;;;;;;15.25;33.32;100442.97;4982208;28;20128;-70
2022/04/20 11:54:36;;;;;;;3.53;1.80;;;;;;;15.32;32.12;100443.38;4998502;28;20061;-70
2022/04/20 11:58:13;;;;;;;5.20;1.33;;;;;;;15.22;33.19;100442.34;4985270;28;20049;-70
2022/04/20 12:01:17;;;;;;;3.55;1.20;;;;;;;15.42;32.36;100428.56;5005171;28;20112;-70
2022/04/20 12:04:25;;;;;;;6.00;1.10;;;;;;;15.49;32.42;100436.84;5009436;28;20107;-69
2022/04/20 12:07:33;;;;;;;3.03;1.15;;;;;;;15.54;32.00;100427.66;5009309;28;20076;-70
2022/04/20 12:10:39;;;;;;;4.68;1.63;;;;;;;15.63;33.12;100427.91;4988035;28;20134;-70
2022/04/20 12:13:43;;;;;;;3.00;1.15;;;;;;;15.64;32.16;100426.97;4990798;28;20571;-70
2022/04/20 12:16:48;;;;;;;2.85;1.10;;;;;;;15.92;33.34;100418.69;4989956;28;20101;-70
2022/04/20 12:19:56;;;;;;;5.38;1.50;;;;;;;16.20;32.39;100421.81;4981303;28;20057;-70
2022/04/20 12:23:06;;;;;;;3.70;1.50;;;;;;;16.35;30.61;100412.72;4969896;28;20054;-69
2022/04/20 12:26:10;;;;;;;3.67;1.20;;;;;;;16.46;30.12;100415.38;4991022;28;20072;-70
2022/04/20 12:29:15;;;;;;;4.75;1.58;;;;;;;16.77;30.26;100412.13;4989111;28;20049;-70
2022/04/20 12:32:26;;;;;;;5.18;1.42;;;;;;;16.95;30.26;100400.09;4988316;28;20044;-75
2022/04/20 12:35:31;;;;;;;5.28;1.60;;;;;;;17.00;29.48;100403.19;4987073;28;20060;-70
2022/04/20 12:38:43;;;;;;;3.92;1.35;;;;;;;17.35;29.53;100392.34;4987289;28;20092;-69
2022/04/20 12:41:47;;;;;;;3.38;0.98;;;;;;;17.47;28.25;100387.03;4987754;28;20081;-69
2022/04/20 12:44:52;;;;;;;4.50;1.40;;;;;;;17.69;29.18;100383.44;4988497;28;20101;-70
2022/04/20 12:48:16;;;;;;;5.90;1.20;;;;;;;17.86;28.92;100372.28;4986735;28;20096;-70
2022/04/20 12:51:23;;;;;;;3.17;1.05;;;;;;;17.94;28.42;100371.66;4988439;28;20097;-71
2022/04/20 12:54:26;;;;;;;3.60;1.30;;;;;;;18.34;28.62;100379.59;4988236;28;20065;-71
2022/04/20 13:04:14;;;;;;;3.35;1.30;;;;;;;18.37;26.96;100363.47;4987656;28;20049;-70
2022/04/20 13:07:18;;;;;;;4.03;1.38;;;;;;;18.42;26.65;100360.44;4976779;28;20062;-71
2022/04/20 13:10:22;;;;;;;4.80;1.95;;;;;;;18.67;27.93;100359.94;4975084;28;20101;-70
2022/04/20 13:13:27;;;;;;;2.58;0.90;;;;;;;18.88;26.25;100351.06;4988152;28;20045;-71
2022/04/20 13:16:35;;;;;;;4.25;1.10;;;;;;;19.31;26.70;100352.47;4995864;28;20468;-70
2022/04/20 13:19:38;;;;;;;4.75;1.35;;;;;;;19.39;26.54;100355.25;4989671;28;20517;-71
2022/04/20 13:22:43;;;;;;;3.10;1.30;;;;;;;19.79;25.90;100346.28;4991734;28;20053;-71
2022/04/20 13:29:08;;;;;;;4.70;1.40;;;;;;;20.21;25.39;100330.75;5012260;28;20107;-71
2022/04/20 13:32:13;;;;;;;3.15;1.40;;;;;;;20.54;24.59;100324.03;5007645;28;20076;-70
2022/04/20 13:35:17;;;;;;;6.15;1.25;;;;;;;21.51;23.43;100325.94;4999265;28;20393;-71
2022/04/20 13:38:22;;;;;;;5.93;1.90;;;;;;;22.04;23.02;100314.22;5012335;28;20151;-71
2022/04/20 13:41:25;;;;;;;7.65;1.50;;;;;;;23.64;20.80;100321.16;5011284;28;20049;-71
2022/04/20 13:44:30;;;;;;;6.78;1.80;;;;;;;25.61;18.54;100305.66;5009300;28;20048;-71
2022/04/20 13:47:37;;;;;;;5.32;1.40;;;;;;;27.70;16.41;100293.28;4990189;28;20213;-69
2022/04/20 13:50:41;;;;;;;6.78;2.10;;;;;;;29.39;14.81;100293.38;4991173;28;20045;-69
2022/04/20 13:53:44;;;;;;;5.80;1.50;;;;;;;30.45;13.98;100286.84;4993665;28;20393;-71
2022/04/20 13:56:50;;;;;;;3.10;1.50;;;;;;;32.00;12.87;100286.16;4995857;28;20072;-70
2022/04/20 13:59:54;;;;;;;2.83;1.10;;;;;;;31.31;12.60;100286.22;5014073;28;20753;-72
2022/04/20 14:02:57;;;;;;;5.63;1.63;;;;;;;29.81;13.88;100286.69;5014066;28;20124;-70
2022/04/20 14:06:01;;;;;;;3.50;1.50;;;;;;;29.54;14.05;100293.13;5014455;28;20045;-72
2022/04/20 14:09:06;;;;;;;2.63;1.10;;;;;;;31.02;12.81;100301.25;5019588;28;20049;-71
2022/04/20 14:12:11;;;;;;;5.35;1.13;;;;;;;30.50;13.78;100297.81;5017234;28;20462;-71
2022/04/20 14:15:18;;;;;;;5.20;1.65;;;;;;;31.60;13.22;100297.41;5016306;28;20308;-70
2022/04/20 14:18:21;;;;;;;6.93;1.75;;;;;;;30.08;13.85;100287.38;5011960;28;20087;-70
2022/04/20 14:21:24;;;;;;;2.95;1.20;;;;;;;32.05;12.76;100286.31;5011830;28;20099;-71
2022/04/20 14:24:31;;;;;;;3.83;1.40;;;;;;;32.41;12.21;100280.81;5011279;28;20137;-70
2022/04/20 14:34:20;;;;;;;4.57;1.38;;;;;;;32.56;12.15;100274.22;5009854;28;20104;-73
2022/04/20 14:37:23;;;;;;;5.28;1.42;;;;;;;32.68;11.67;100271.53;5011828;28;20106;-71
2022/04/20 14:40:27;;;;;;;2.92;1.38;;;;;;;31.99;12.15;100269.13;5005374;28;20044;-70
2022/04/20 14:43:31;;;;;;;4.30;1.58;;;;;;;31.64;12.21;100269.69;4996029;28;20080;-70
2022/04/20 14:46:35;;;;;;;2.67;1.17;;;;;;;31.81;12.96;100260.97;5031165;28;20114;-71
2022/04/20 14:49:41;;;;;;;4.65;1.67;;;;;;;32.31;12.40;100260.78;5031405;28;20098;-71
2022/04/20 14:52:45;;;;;;;4.22;1.60;;;;;;;32.29;12.54;100279.13;5033194;28;20060;-71
2022/04/20 14:55:49;;;;;;;5.25;1.38;;;;;;;32.38;12.56;100262.34;5023833;28;20078;-71
2022/04/20 14:58:53;;;;;;;3.38;1.63;;;;;;;33.88;11.38;100260.25;5009968;28;20052;-71
2022/04/20 15:01:57;;;;;;;2.72;1.58;;;;;;;33.34;12.35;100254.19;5009794;28;20053;-71
2022/04/20 15:05:01;;;;;;;9.25;1.48;;;;;;;32.19;13.14;100250.75;5000222;28;20112;-71
2022/04/20 15:08:06;;;;;;;3.13;1.25;;;;;;;31.64;13.48;100260.78;5023375;28;20052;-71
2022/04/20 15:11:10;;;;;;;4.43;1.63;;;;;;;30.96;15.02;100253.50;5010084;28;20137;-71
2022/04/20 15:14:16;;;;;;;4.07;1.70;;;;;;;30.97;14.87;100263.25;5000116;28;20124;-71
2022/04/20 15:17:19;;;;;;;8.10;1.80;;;;;;;31.15;14.54;100270.59;5009339;28;20374;-71
2022/04/20 15:20:22;;;;;;;2.97;1.60;;;;;;;30.35;13.91;100268.44;5011509;28;20052;-71
2022/04/20 15:23:27;;;;;;;4.65;1.58;;;;;;;31.85;12.95;100262.19;5010599;28;20409;-71
2022/04/20 15:26:31;;;;;;;2.83;1.48;;;;;;;31.24;13.19;100259.28;5007970;28;20099;-70
2022/04/20 15:29:34;;;;;;;4.40;1.70;;;;;;;31.79;13.40;100263.09;5006165;28;20044;-71
2022/04/20 15:32:39;;;;;;;9.35;1.50;;;;;;;31.96;13.09;100253.34;4987622;28;20053;-71
2022/04/20 15:35:43;;;;;;;5.18;1.40;;;;;;;31.96;13.61;100256.06;5000887;28;20121;-70